EIN9HW KRDU-EIDW
Flight info
| Callsign | EIN9HW |
|---|---|
| Flight time | N/A |
| Altitude | 33000 |
| Route | OXFRD5 CARML DCT LDN DCT AML DCT EMI DCT LRP DCT PONCT DCT MOBAL DCT BAREE N647B RIKAL/M080F330 NATW NETKI/N0461F330 DCT REVNU DCT OLAPO OLAPO4L |
| Aircraft | A21N/M-SDE2E3FGHIRWXY/LB1 |
Departure
| Time | 2026-04-28 02:04 |
|---|---|
| Airport | Raleigh-Durham International Airport (KRDU) |
Arrival
| Time | N/A |
|---|---|
| Airport | Dublin Airport (EIDW) |
| Time | Latitude | Longitude | Altitude | Speed | Heading |
|---|---|---|---|---|---|
| 2026-04-28 01:53 | 35.87936 | -78.79055 | 397 ft | 0 kts | 290° |
| 2026-04-28 01:55 | 35.87935 | -78.79053 | 397 ft | 3 kts | 288° |
| 2026-04-28 01:55 | 35.87936 | -78.79056 | 397 ft | 3 kts | 332° |
| 2026-04-28 01:56 | 35.87916 | -78.79046 | 397 ft | 4 kts | 343° |
| 2026-04-28 01:56 | 35.87890 | -78.79041 | 396 ft | 4 kts | 8° |
| 2026-04-28 01:56 | 35.87873 | -78.79050 | 397 ft | 1 kts | 45° |
| 2026-04-28 01:59 | 35.87874 | -78.79049 | 397 ft | 3 kts | 45° |
| 2026-04-28 01:59 | 35.87917 | -78.78996 | 405 ft | 15 kts | 45° |
| 2026-04-28 02:00 | 35.88019 | -78.79004 | 397 ft | 18 kts | 307° |
| 2026-04-28 02:00 | 35.88079 | -78.79101 | 395 ft | 10 kts | 283° |
| 2026-04-28 02:00 | 35.88038 | -78.79174 | 397 ft | 12 kts | 219° |
| 2026-04-28 02:00 | 35.87985 | -78.79251 | 395 ft | 12 kts | 270° |
| 2026-04-28 02:01 | 35.87977 | -78.79352 | 397 ft | 13 kts | 221° |
| 2026-04-28 02:01 | 35.87908 | -78.79434 | 397 ft | 14 kts | 224° |
| 2026-04-28 02:01 | 35.87836 | -78.79524 | 396 ft | 15 kts | 226° |
| 2026-04-28 02:01 | 35.87758 | -78.79621 | 393 ft | 17 kts | 224° |
| 2026-04-28 02:02 | 35.87672 | -78.79726 | 397 ft | 18 kts | 225° |
| 2026-04-28 02:02 | 35.87580 | -78.79838 | 394 ft | 19 kts | 225° |
| 2026-04-28 02:02 | 35.87484 | -78.79959 | 394 ft | 20 kts | 226° |
| 2026-04-28 02:02 | 35.87399 | -78.80069 | 396 ft | 9 kts | 233° |
| 2026-04-28 02:03 | 35.87448 | -78.80159 | 395 ft | 18 kts | 4° |
| 2026-04-28 02:03 | 35.87548 | -78.80070 | 394 ft | 20 kts | 43° |
| 2026-04-28 02:03 | 35.87802 | -78.79752 | 397 ft | 87 kts | 43° |
| 2026-04-28 02:03 | 35.88376 | -78.79046 | 396 ft | 145 kts | 46° |
| 2026-04-28 02:04 | 35.89181 | -78.78046 | 569 ft | 169 kts | 46° |
| 2026-04-28 02:04 | 35.90026 | -78.77084 | 1226 ft | 167 kts | 36° |
| 2026-04-28 02:04 | 35.91136 | -78.76564 | 1797 ft | 174 kts | 17° |
| 2026-04-28 02:04 | 35.92333 | -78.76207 | 2254 ft | 188 kts | 18° |
| 2026-04-28 02:05 | 35.93656 | -78.75770 | 2666 ft | 203 kts | 19° |
| 2026-04-28 02:05 | 35.95068 | -78.75282 | 3092 ft | 218 kts | 18° |
| 2026-04-28 02:05 | 35.96599 | -78.74750 | 3354 ft | 241 kts | 18° |
| 2026-04-28 02:05 | 35.98284 | -78.74168 | 3687 ft | 259 kts | 18° |
| 2026-04-28 02:06 | 36.00047 | -78.73555 | 4359 ft | 264 kts | 17° |
| 2026-04-28 02:06 | 36.01814 | -78.72944 | 5112 ft | 266 kts | 16° |
| 2026-04-28 02:06 | 36.03606 | -78.72324 | 5834 ft | 269 kts | 15° |
| 2026-04-28 02:06 | 36.05426 | -78.71693 | 6530 ft | 272 kts | 15° |
| 2026-04-28 02:07 | 36.07266 | -78.71060 | 7160 ft | 276 kts | 14° |
| 2026-04-28 02:07 | 36.09106 | -78.70430 | 7796 ft | 280 kts | 14° |
| 2026-04-28 02:07 | 36.10997 | -78.69779 | 8445 ft | 284 kts | 14° |
| 2026-04-28 02:07 | 36.12916 | -78.69112 | 9113 ft | 287 kts | 14° |
| 2026-04-28 02:08 | 36.14853 | -78.68439 | 9801 ft | 291 kts | 14° |
| 2026-04-28 02:08 | 36.16825 | -78.67753 | 10320 ft | 301 kts | 14° |
| 2026-04-28 02:08 | 36.18907 | -78.67029 | 10596 ft | 319 kts | 14° |
| 2026-04-28 02:08 | 36.21100 | -78.66268 | 10846 ft | 337 kts | 14° |
| 2026-04-28 02:09 | 36.23393 | -78.65472 | 11080 ft | 354 kts | 13° |
| 2026-04-28 02:09 | 36.25828 | -78.64623 | 11304 ft | 371 kts | 14° |
| 2026-04-28 02:09 | 36.28371 | -78.63731 | 11524 ft | 386 kts | 14° |
| 2026-04-28 02:09 | 36.31007 | -78.62806 | 11743 ft | 399 kts | 14° |